createdAt,value
2022-10-26T00:01:05.857Z,20.88
2022-10-26T00:03:33.851Z,19.65
2022-10-26T00:06:20.455Z,22.60
2022-10-26T00:08:48.239Z,20.73
2022-10-26T00:11:16.139Z,19.13
2022-10-26T00:13:43.657Z,15.55
2022-10-26T00:16:12.321Z,19.27
2022-10-26T00:18:40.054Z,24.65
2022-10-26T00:21:08.143Z,19.15
2022-10-26T00:23:35.428Z,25.95
2022-10-26T00:26:02.949Z,18.05
2022-10-26T00:28:30.369Z,19.98
2022-10-26T00:31:01.318Z,19.02
2022-10-26T00:33:30.194Z,20.02
2022-10-26T00:35:57.645Z,19.75
2022-10-26T00:38:24.941Z,16.33
2022-10-26T00:40:52.358Z,21.23
2022-10-26T00:43:22.687Z,25.67
2022-10-26T00:45:56.114Z,23.73
2022-10-26T00:48:28.758Z,22.67
2022-10-26T00:50:57.354Z,22.73
2022-10-26T00:53:24.719Z,19.58
2022-10-26T00:55:53.257Z,21.20
2022-10-26T00:58:21.664Z,23.40
2022-10-26T01:00:49.750Z,26.33
2022-10-26T01:03:17.855Z,25.70
2022-10-26T01:05:46.050Z,22.00
2022-10-26T01:08:13.931Z,21.80
2022-10-26T01:10:42.523Z,26.20
2022-10-26T01:13:10.007Z,27.50
2022-10-26T01:15:49.425Z,28.25
2022-10-26T01:18:23.477Z,25.42
2022-10-26T01:21:09.297Z,29.75
2022-10-26T01:23:36.548Z,27.92
2022-10-26T01:26:18.417Z,25.50
2022-10-26T01:28:51.550Z,30.77
2022-10-26T01:31:21.667Z,29.55
2022-10-26T01:33:52.832Z,34.45
2022-10-26T01:38:59.155Z,26.77
2022-10-26T01:41:31.973Z,27.30
2022-10-26T01:44:02.291Z,26.35
2022-10-26T01:46:31.454Z,24.43
2022-10-26T01:49:00.249Z,30.08
2022-10-26T01:51:28.301Z,25.38
2022-10-26T01:53:55.602Z,25.20
2022-10-26T01:56:26.827Z,31.15
2022-10-26T02:01:27.506Z,28.05
2022-10-26T02:04:00.334Z,31.58
2022-10-26T02:06:36.958Z,30.10
2022-10-26T02:09:04.248Z,29.33
2022-10-26T02:11:40.233Z,30.63
2022-10-26T02:14:16.787Z,34.92
2022-10-26T02:16:54.134Z,30.27
2022-10-26T02:19:44.194Z,27.83
2022-10-26T02:22:22.859Z,29.73
2022-10-26T02:24:52.182Z,29.73
2022-10-26T02:27:22.524Z,37.35
2022-10-26T02:29:52.174Z,33.70
2022-10-26T02:32:20.606Z,31.00
2022-10-26T02:34:49.105Z,36.33
2022-10-26T02:37:19.575Z,33.95
2022-10-26T02:39:48.919Z,28.23
2022-10-26T02:42:16.632Z,34.05
2022-10-26T02:44:47.019Z,32.72
2022-10-26T02:47:14.328Z,33.47
2022-10-26T02:49:41.980Z,31.27
2022-10-26T02:52:16.315Z,29.00
2022-10-26T02:55:09.993Z,35.20
2022-10-26T02:57:41.465Z,27.85
2022-10-26T03:02:38.279Z,30.10
2022-10-26T03:05:16.673Z,31.10
2022-10-26T03:07:43.904Z,29.80
2022-10-26T03:10:11.467Z,34.47
2022-10-26T03:12:39.198Z,27.90
2022-10-26T03:15:06.945Z,30.73
2022-10-26T03:17:34.211Z,28.55
2022-10-26T03:20:01.548Z,31.40
2022-10-26T03:22:28.822Z,24.85
2022-10-26T03:24:56.088Z,36.10
2022-10-26T03:27:23.589Z,32.92
2022-10-26T03:29:50.874Z,31.45
2022-10-26T03:32:18.179Z,41.67
2022-10-26T03:34:45.428Z,38.00
2022-10-26T03:37:12.757Z,29.50
2022-10-26T03:39:40.010Z,32.95
2022-10-26T03:42:07.287Z,31.58
2022-10-26T03:44:34.549Z,32.28
2022-10-26T03:47:01.809Z,36.70
2022-10-26T03:49:29.060Z,35.95
2022-10-26T03:51:56.295Z,33.42
2022-10-26T03:54:23.563Z,35.67
2022-10-26T03:56:52.770Z,34.42
2022-10-26T03:59:22.341Z,33.00
2022-10-26T04:01:52.748Z,35.90
2022-10-26T04:04:22.864Z,39.35
2022-10-26T04:06:50.152Z,33.33
2022-10-26T04:09:17.431Z,39.25
2022-10-26T04:11:44.784Z,32.50
2022-10-26T04:14:12.214Z,40.03
2022-10-26T04:16:39.429Z,39.05
2022-10-26T04:19:07.391Z,38.42
2022-10-26T04:21:35.532Z,36.90
2022-10-26T04:24:03.148Z,34.42
2022-10-26T04:26:30.446Z,38.47
2022-10-26T04:28:57.741Z,34.25
2022-10-26T04:31:25.240Z,36.00
2022-10-26T04:33:52.508Z,38.45
2022-10-26T04:36:19.764Z,40.47
2022-10-26T04:38:48.964Z,38.67
2022-10-26T04:41:16.493Z,34.45
2022-10-26T04:43:43.810Z,33.92
2022-10-26T04:46:16.567Z,31.85
2022-10-26T04:48:44.228Z,31.58
2022-10-26T04:51:11.473Z,34.60
2022-10-26T04:53:38.745Z,39.72
2022-10-26T04:56:06.056Z,33.00
2022-10-26T04:58:33.292Z,38.78
2022-10-26T05:01:02.713Z,36.92
2022-10-26T05:03:30.243Z,37.03
2022-10-26T05:05:59.866Z,39.38
2022-10-26T05:08:28.658Z,31.98
2022-10-26T05:10:56.222Z,27.92
2022-10-26T05:13:23.633Z,26.67
2022-10-26T05:15:54.297Z,29.23
2022-10-26T05:18:21.622Z,33.88
2022-10-26T05:20:50.439Z,29.50
2022-10-26T05:23:20.510Z,26.10
2022-10-26T05:25:48.157Z,24.08
2022-10-26T05:28:19.042Z,28.52
2022-10-26T05:30:46.799Z,26.42
2022-10-26T05:33:15.023Z,23.42
2022-10-26T05:35:42.284Z,21.88
2022-10-26T05:38:10.458Z,18.83
2022-10-26T05:40:38.011Z,24.92
2022-10-26T05:43:05.348Z,17.17
2022-10-26T05:45:32.591Z,19.33
2022-10-26T05:48:02.572Z,28.45
2022-10-26T05:50:30.751Z,20.45
2022-10-26T05:52:58.050Z,18.30
2022-10-26T05:55:25.519Z,19.30
2022-10-26T05:57:53.099Z,25.00
2022-10-26T06:00:21.866Z,20.15
2022-10-26T06:02:57.895Z,20.42
2022-10-26T06:05:27.361Z,23.45
2022-10-26T06:07:54.827Z,19.70
2022-10-26T06:10:22.182Z,20.75
2022-10-26T06:12:49.805Z,16.58
2022-10-26T06:15:19.332Z,17.92
2022-10-26T06:17:46.577Z,18.30
2022-10-26T06:20:40.082Z,18.38
2022-10-26T06:23:33.799Z,14.57
2022-10-26T06:26:12.862Z,25.55
2022-10-26T06:28:50.864Z,22.48
2022-10-26T06:31:18.456Z,21.83
2022-10-26T06:33:45.838Z,32.85
2022-10-26T06:36:22.578Z,26.00
2022-10-26T06:38:51.798Z,29.45
2022-10-26T06:41:19.585Z,21.75
2022-10-26T06:43:47.041Z,20.63
2022-10-26T06:46:23.699Z,17.65
2022-10-26T06:48:51.049Z,18.00
2022-10-26T06:51:18.558Z,16.85
2022-10-26T06:53:53.257Z,16.75
2022-10-26T06:56:20.803Z,19.42
2022-10-26T06:58:49.649Z,17.77
2022-10-26T07:01:17.614Z,20.75
2022-10-26T07:03:44.960Z,14.25
2022-10-26T07:06:12.193Z,15.55
2022-10-26T07:08:39.583Z,16.42
2022-10-26T07:11:06.836Z,21.83
2022-10-26T07:13:34.107Z,15.20
2022-10-26T07:16:01.699Z,21.30
2022-10-26T07:18:28.952Z,19.42
2022-10-26T07:20:56.205Z,14.85
2022-10-26T07:23:23.819Z,21.92
2022-10-26T07:25:51.101Z,21.90
2022-10-26T07:28:18.318Z,19.30
2022-10-26T07:30:45.609Z,19.27
2022-10-26T07:33:14.116Z,22.75
2022-10-26T07:35:41.474Z,14.98
2022-10-26T07:38:11.267Z,13.60
2022-10-26T07:40:38.546Z,16.55
2022-10-26T07:43:06.071Z,18.02
2022-10-26T07:45:34.123Z,17.58
2022-10-26T07:48:01.428Z,15.25
2022-10-26T07:50:29.047Z,17.40
2022-10-26T07:52:56.373Z,15.95
2022-10-26T07:55:23.651Z,18.05
2022-10-26T07:57:52.606Z,15.75
2022-10-26T08:00:22.133Z,13.75
2022-10-26T08:02:49.452Z,13.10
2022-10-26T08:05:16.829Z,19.63
2022-10-26T08:07:45.445Z,18.40
2022-10-26T08:10:13.443Z,17.67
2022-10-26T08:12:41.431Z,19.80
2022-10-26T08:15:09.220Z,22.88
2022-10-26T08:17:36.601Z,14.23
2022-10-26T08:20:04.442Z,17.90
2022-10-26T08:22:31.784Z,15.40
2022-10-26T08:24:59.078Z,20.33
2022-10-26T08:27:26.454Z,15.00
2022-10-26T08:29:53.738Z,17.55
2022-10-26T08:32:21.101Z,25.27
2022-10-26T08:34:48.358Z,17.10
2022-10-26T08:37:15.629Z,20.95
2022-10-26T08:39:42.885Z,19.92
2022-10-26T08:42:36.510Z,16.58
2022-10-26T08:45:11.546Z,14.63
2022-10-26T08:47:44.951Z,18.08
2022-10-26T08:50:15.286Z,19.67
2022-10-26T08:52:51.779Z,20.03
2022-10-26T08:55:20.194Z,12.95
2022-10-26T08:57:50.179Z,16.52
2022-10-26T09:00:25.776Z,18.55
2022-10-26T09:02:54.135Z,12.45
2022-10-26T09:05:44.395Z,16.15
2022-10-26T09:08:18.918Z,15.40
2022-10-26T09:10:46.126Z,16.13
2022-10-26T09:13:13.337Z,16.83
2022-10-26T09:16:03.302Z,15.40
2022-10-26T09:18:39.674Z,12.82
2022-10-26T09:21:16.202Z,12.35
2022-10-26T09:23:46.427Z,17.35
2022-10-26T09:26:14.993Z,17.30
2022-10-26T09:28:42.728Z,14.63
2022-10-26T09:31:14.288Z,14.20
2022-10-26T09:33:41.611Z,15.18
2022-10-26T09:36:16.926Z,18.85
2022-10-26T09:38:56.555Z,17.42
2022-10-26T09:41:25.148Z,17.27
2022-10-26T09:43:57.839Z,17.38
2022-10-26T09:46:31.969Z,17.65
2022-10-26T09:49:00.697Z,17.60
2022-10-26T09:51:29.350Z,21.83
2022-10-26T09:53:58.666Z,23.20
2022-10-26T09:56:27.019Z,19.05
2022-10-26T09:59:02.085Z,23.92
2022-10-26T10:01:38.549Z,26.70
2022-10-26T10:04:11.906Z,21.92
2022-10-26T10:06:39.445Z,19.05
2022-10-26T10:09:13.192Z,25.17
2022-10-26T10:11:41.946Z,31.75
2022-10-26T10:14:10.103Z,22.85
2022-10-26T10:16:37.452Z,24.65
2022-10-26T10:19:04.748Z,21.00
2022-10-26T10:21:39.661Z,26.10
2022-10-26T10:24:25.693Z,19.88
2022-10-26T10:26:58.977Z,21.67
2022-10-26T10:29:27.151Z,20.52
2022-10-26T10:32:01.829Z,16.88
2022-10-26T10:34:32.831Z,21.23
2022-10-26T10:37:00.981Z,17.70
2022-10-26T10:39:35.704Z,22.08
2022-10-26T10:42:04.071Z,19.88
2022-10-26T10:44:33.317Z,17.30
2022-10-26T10:47:04.665Z,16.90
2022-10-26T10:49:32.482Z,17.20
2022-10-26T10:52:00.530Z,17.10
2022-10-26T10:54:35.405Z,15.35
2022-10-26T10:57:05.493Z,19.05
2022-10-26T10:59:35.794Z,16.15
2022-10-26T11:02:22.022Z,13.67
2022-10-26T11:05:05.286Z,13.10
2022-10-26T11:07:34.945Z,13.60
2022-10-26T11:10:03.730Z,10.88
2022-10-26T11:12:38.417Z,9.77
2022-10-26T11:15:12.719Z,11.90
2022-10-26T11:17:58.922Z,11.50
2022-10-26T11:20:28.139Z,10.95
2022-10-26T11:23:06.547Z,7.78
2022-10-26T11:25:41.038Z,11.32
2022-10-26T11:28:17.327Z,8.15
2022-10-26T11:30:47.553Z,11.63
2022-10-26T11:33:38.149Z,7.35
2022-10-26T11:36:06.959Z,10.18
2022-10-26T11:38:46.062Z,11.30
2022-10-26T11:41:23.118Z,8.85
2022-10-26T11:44:02.584Z,10.05
2022-10-26T11:46:32.593Z,6.15
2022-10-26T11:49:01.833Z,8.30
2022-10-26T11:51:47.715Z,10.50
2022-10-26T11:54:18.819Z,7.22
2022-10-26T11:56:50.505Z,8.35
2022-10-26T11:59:20.187Z,7.75
2022-10-26T12:01:48.966Z,8.05
2022-10-26T12:04:17.445Z,8.60
2022-10-26T12:06:45.519Z,6.85
2022-10-26T12:09:21.412Z,11.45
2022-10-26T12:12:03.046Z,13.02
2022-10-26T12:14:35.794Z,11.82
2022-10-26T12:17:21.878Z,10.40
2022-10-26T12:20:09.471Z,7.55
2022-10-26T12:22:40.190Z,8.18
2022-10-26T12:25:16.318Z,9.40
2022-10-26T12:27:43.561Z,8.30
2022-10-26T12:30:19.842Z,5.90
2022-10-26T12:32:48.779Z,9.82
2022-10-26T12:35:35.292Z,7.65
2022-10-26T12:38:22.477Z,7.95
2022-10-26T12:40:50.138Z,8.43
2022-10-26T12:43:17.451Z,16.13
2022-10-26T12:46:07.698Z,9.32
2022-10-26T12:48:50.954Z,13.93
2022-10-26T12:51:27.186Z,17.38
2022-10-26T12:53:57.160Z,14.45
2022-10-26T12:56:37.785Z,11.15
2022-10-26T12:59:10.895Z,10.13
2022-10-26T13:01:45.658Z,7.03
2022-10-26T13:04:21.880Z,8.50
2022-10-26T13:07:13.341Z,8.82
2022-10-26T13:09:40.666Z,5.57
2022-10-26T13:12:07.966Z,6.72
2022-10-26T13:14:37.467Z,6.55
2022-10-26T13:17:08.262Z,5.88
2022-10-26T13:19:43.255Z,8.32
2022-10-26T13:22:17.299Z,6.15
2022-10-26T13:24:49.672Z,6.07
2022-10-26T13:27:16.884Z,7.03
2022-10-26T13:30:02.967Z,9.70
2022-10-26T13:32:31.181Z,4.03
2022-10-26T13:35:00.463Z,4.07
2022-10-26T13:37:28.710Z,3.10
2022-10-26T13:39:56.374Z,5.95
2022-10-26T13:45:10.438Z,6.38
2022-10-26T13:47:46.913Z,6.20
2022-10-26T13:50:22.014Z,6.55
2022-10-26T13:52:52.162Z,8.63
2022-10-26T13:55:22.474Z,10.55
2022-10-26T13:58:04.040Z,6.90
2022-10-26T14:00:33.606Z,14.40
2022-10-26T14:03:00.858Z,7.18
2022-10-26T14:05:28.199Z,10.07
2022-10-26T14:07:57.687Z,8.57
2022-10-26T14:10:28.098Z,4.57
2022-10-26T14:12:55.722Z,6.90
2022-10-26T14:15:27.792Z,5.55
2022-10-26T14:17:56.122Z,2.67
2022-10-26T14:20:24.431Z,4.88
2022-10-26T14:22:52.004Z,7.50
2022-10-26T14:25:26.684Z,4.97
2022-10-26T14:28:04.965Z,10.13
2022-10-26T14:30:33.779Z,3.83
2022-10-26T14:33:01.854Z,3.33
2022-10-26T14:35:31.155Z,7.22
2022-10-26T14:38:01.031Z,3.88
2022-10-26T14:40:29.330Z,6.55
2022-10-26T14:42:58.651Z,3.70
2022-10-26T14:45:29.733Z,4.35
2022-10-26T14:48:20.527Z,4.30
2022-10-26T14:50:59.014Z,4.70
2022-10-26T14:53:31.462Z,7.00
2022-10-26T14:55:59.056Z,8.52
2022-10-26T14:58:30.663Z,7.88
2022-10-26T15:01:16.561Z,7.43
2022-10-26T15:03:48.047Z,9.95
2022-10-26T15:08:56.454Z,10.00
2022-10-26T15:11:24.766Z,7.57
2022-10-26T15:13:52.389Z,7.13
2022-10-26T15:16:21.124Z,9.32
2022-10-26T15:18:51.481Z,7.03
2022-10-26T15:21:18.689Z,5.95
2022-10-26T15:23:45.985Z,6.55
2022-10-26T15:26:13.367Z,6.07
2022-10-26T15:28:44.582Z,4.47
2022-10-26T15:33:38.953Z,4.85
2022-10-26T15:36:08.969Z,5.00
2022-10-26T15:38:36.285Z,5.53
2022-10-26T15:41:07.604Z,4.32
2022-10-26T15:43:34.902Z,4.13
2022-10-26T15:46:02.315Z,4.40
2022-10-26T15:48:31.900Z,3.17
2022-10-26T15:50:59.353Z,6.43
2022-10-26T15:53:31.115Z,4.25
2022-10-26T15:55:59.722Z,5.45
2022-10-26T15:58:27.746Z,3.30
2022-10-26T16:00:55.062Z,2.78
2022-10-26T16:03:23.436Z,4.03
2022-10-26T16:06:01.632Z,3.60
2022-10-26T16:08:30.784Z,6.95
2022-10-26T16:10:58.251Z,2.90
2022-10-26T16:13:26.819Z,3.83
2022-10-26T16:15:54.286Z,7.55
2022-10-26T16:18:21.505Z,3.83
2022-10-26T16:20:48.829Z,5.10
2022-10-26T16:23:16.151Z,4.40
2022-10-26T16:25:45.265Z,4.45
2022-10-26T16:28:13.830Z,4.35
2022-10-26T16:33:13.324Z,3.00
2022-10-26T16:35:40.630Z,3.15
2022-10-26T16:38:07.976Z,4.10
2022-10-26T16:40:35.274Z,4.90
2022-10-26T16:43:02.578Z,5.32
2022-10-26T16:45:29.875Z,4.45
2022-10-26T16:47:58.053Z,3.78
2022-10-26T16:50:25.377Z,5.20
2022-10-26T16:52:52.627Z,5.13
2022-10-26T16:55:24.540Z,2.90
2022-10-26T16:57:52.102Z,4.30
2022-10-26T17:00:19.790Z,6.90
2022-10-26T17:02:47.045Z,4.13
2022-10-26T17:05:15.687Z,5.85
2022-10-26T17:07:42.943Z,3.63
2022-10-26T17:10:12.946Z,5.05
2022-10-26T17:12:40.235Z,6.45
2022-10-26T17:15:09.074Z,4.20
2022-10-26T17:17:36.407Z,2.67
2022-10-26T17:20:03.876Z,6.57
2022-10-26T17:22:31.233Z,5.00
2022-10-26T17:24:58.564Z,6.75
2022-10-26T17:27:26.763Z,3.80
2022-10-26T17:29:54.144Z,4.05
2022-10-26T17:32:22.422Z,5.90
2022-10-26T17:34:49.743Z,5.00
2022-10-26T17:37:17.211Z,5.28
2022-10-26T17:39:44.533Z,5.18
2022-10-26T17:42:11.800Z,7.60
2022-10-26T17:44:39.239Z,5.40
2022-10-26T17:47:06.582Z,8.15
2022-10-26T17:49:36.291Z,11.00
2022-10-26T17:52:03.866Z,6.43
2022-10-26T17:54:31.158Z,8.52
2022-10-26T17:56:58.877Z,7.30
2022-10-26T17:59:26.268Z,5.88
2022-10-26T18:01:53.664Z,4.75
2022-10-26T18:04:22.405Z,5.90
2022-10-26T18:06:50.636Z,4.97
2022-10-26T18:09:17.968Z,4.15
2022-10-26T18:11:45.211Z,5.53
2022-10-26T18:14:13.887Z,5.78
2022-10-26T18:16:41.139Z,5.43
2022-10-26T18:19:08.953Z,10.07
2022-10-26T18:21:37.796Z,5.65
2022-10-26T18:24:05.898Z,5.07
2022-10-26T18:26:33.490Z,6.15
2022-10-26T18:29:01.729Z,6.05
2022-10-26T18:31:30.264Z,5.80
2022-10-26T18:33:58.659Z,4.82
2022-10-26T18:36:26.323Z,6.00
2022-10-26T18:38:54.117Z,5.90
2022-10-26T18:41:22.183Z,4.85
2022-10-26T18:43:53.285Z,4.57
2022-10-26T18:46:24.410Z,4.60
2022-10-26T18:51:19.699Z,6.00
2022-10-26T18:53:47.341Z,6.00
2022-10-26T18:56:15.899Z,7.72
2022-10-26T18:58:44.125Z,21.55
2022-10-26T19:01:16.030Z,26.67
2022-10-26T19:03:43.851Z,38.03
2022-10-26T19:06:12.524Z,47.33
2022-10-26T19:08:39.929Z,43.83
2022-10-26T19:11:08.732Z,19.02
2022-10-26T19:13:36.227Z,15.80
2022-10-26T19:16:12.735Z,11.77
2022-10-26T19:18:56.204Z,7.40
2022-10-26T19:21:24.454Z,12.00
2022-10-26T19:23:52.879Z,8.48
2022-10-26T19:26:21.350Z,4.80
2022-10-26T19:28:48.761Z,5.45
2022-10-26T19:31:16.112Z,6.88
2022-10-26T19:33:43.515Z,6.47
2022-10-26T19:36:12.601Z,6.00
2022-10-26T19:38:39.944Z,4.93
2022-10-26T19:41:08.473Z,5.20
2022-10-26T19:43:36.701Z,6.18
2022-10-26T19:46:09.136Z,4.45
2022-10-26T19:48:36.639Z,8.40
2022-10-26T19:51:04.446Z,9.75
2022-10-26T19:53:31.771Z,7.53
2022-10-26T19:55:59.869Z,10.55
2022-10-26T19:58:27.690Z,8.23
2022-10-26T20:01:01.206Z,7.65
2022-10-26T20:03:29.221Z,13.75
2022-10-26T20:05:57.312Z,9.18
2022-10-26T20:08:24.779Z,10.48
2022-10-26T20:10:53.993Z,13.35
2022-10-26T20:13:21.588Z,9.57
2022-10-26T20:15:51.285Z,9.38
2022-10-26T20:18:18.782Z,10.50
2022-10-26T20:20:46.249Z,12.95
2022-10-26T20:23:14.055Z,15.32
2022-10-26T20:25:48.620Z,12.48
2022-10-26T20:28:16.720Z,13.32
2022-10-26T20:30:44.691Z,10.63
2022-10-26T20:33:12.171Z,13.65
2022-10-26T20:35:42.030Z,7.40
2022-10-26T20:38:15.325Z,4.95
2022-10-26T20:40:42.706Z,5.63
2022-10-26T20:43:10.617Z,7.60
2022-10-26T20:45:37.987Z,8.27
2022-10-26T20:48:05.465Z,8.70
2022-10-26T20:50:33.333Z,8.90
2022-10-26T20:53:00.594Z,8.65
2022-10-26T20:55:42.942Z,5.93
2022-10-26T20:58:42.640Z,6.50
2022-10-26T21:01:19.651Z,8.20
2022-10-26T21:03:47.008Z,7.32
2022-10-26T21:06:14.225Z,10.00
2022-10-26T21:08:41.561Z,8.90
2022-10-26T21:11:08.900Z,8.27
2022-10-26T21:13:36.225Z,6.55
2022-10-26T21:16:07.378Z,4.88
2022-10-26T21:21:02.200Z,8.85
2022-10-26T21:23:33.213Z,8.07
2022-10-26T21:26:00.911Z,4.97
2022-10-26T21:28:38.726Z,9.25
2022-10-26T21:31:06.687Z,7.85
2022-10-26T21:33:34.082Z,5.25
2022-10-26T21:36:05.593Z,6.93
2022-10-26T21:38:33.334Z,8.60
2022-10-26T21:41:09.690Z,7.10
2022-10-26T21:43:37.796Z,7.90
2022-10-26T21:46:05.113Z,8.98
2022-10-26T21:48:32.959Z,4.60
2022-10-26T21:51:02.243Z,4.07
2022-10-26T21:53:29.883Z,3.42
2022-10-26T21:56:04.235Z,3.70
2022-10-26T21:58:31.695Z,7.45
2022-10-26T22:01:06.087Z,6.60
2022-10-26T22:03:33.506Z,4.78
2022-10-26T22:06:01.077Z,6.00
2022-10-26T22:08:28.605Z,3.30
2022-10-26T22:10:56.075Z,7.00
2022-10-26T22:13:23.700Z,5.18
2022-10-26T22:16:00.855Z,3.97
2022-10-26T22:18:28.107Z,4.07
2022-10-26T22:20:59.384Z,5.55
2022-10-26T22:23:26.697Z,6.75
2022-10-26T22:25:54.198Z,6.78
2022-10-26T22:28:21.477Z,6.88
2022-10-26T22:30:48.858Z,3.90
2022-10-26T22:33:16.090Z,7.45
2022-10-26T22:35:43.741Z,7.30
2022-10-26T22:38:10.983Z,8.68
2022-10-26T22:40:38.250Z,7.10
2022-10-26T22:43:05.555Z,7.57
2022-10-26T22:45:32.857Z,3.47
2022-10-26T22:48:00.173Z,4.32
2022-10-26T22:50:27.446Z,3.00
2022-10-26T22:52:54.693Z,6.88
2022-10-26T22:55:21.946Z,4.70
2022-10-26T22:57:49.558Z,10.98
2022-10-26T23:00:17.343Z,4.00
2022-10-26T23:02:44.587Z,5.63
2022-10-26T23:05:11.833Z,5.85
2022-10-26T23:07:39.148Z,5.00
2022-10-26T23:10:06.636Z,7.90
2022-10-26T23:12:33.929Z,4.97
2022-10-26T23:15:01.196Z,7.30
2022-10-26T23:17:30.698Z,7.22
2022-10-26T23:19:57.953Z,5.20
2022-10-26T23:22:26.449Z,3.60
2022-10-26T23:24:53.871Z,3.00
2022-10-26T23:27:21.100Z,3.42
2022-10-26T23:29:48.350Z,2.78
2022-10-26T23:32:15.598Z,4.07
2022-10-26T23:34:42.903Z,2.58
2022-10-26T23:37:12.650Z,3.95
2022-10-26T23:39:39.992Z,4.50
2022-10-26T23:42:07.251Z,2.85
2022-10-26T23:44:34.490Z,3.38
2022-10-26T23:47:01.811Z,4.00
2022-10-26T23:49:29.130Z,4.43
2022-10-26T23:51:56.422Z,6.60
2022-10-26T23:54:23.690Z,2.25
2022-10-26T23:56:50.951Z,3.45
2022-10-26T23:59:19.713Z,4.78
